Time;durP1;ratioP1;P1;durP2;ratioP2;P2;SDS_P1;SDS_P2;PMS_P1;PMS_P2;Temp;Humidity;BMP_temperature;BMP_pressure;BME280_temperature;BME280_humidity;BME280_pressure;Samples;Min_cycle;Max_cycle;Signal;HPM_P1;HPM_P2
2023/07/09 00:01:02;;;;;;;9.82;3.35;;;30.40;43.80;;;;;;6134932;29;20055;-73
2023/07/09 00:04:03;;;;;;;13.02;3.58;;;30.40;44.10;;;;;;6118107;29;20035;-73
2023/07/09 00:07:05;;;;;;;5.75;3.15;;;30.30;44.30;;;;;;6103278;29;20099;-74
2023/07/09 00:10:18;;;;;;;12.43;3.60;;;30.30;44.50;;;;;;6103434;29;20094;-74
2023/07/09 00:13:18;;;;;;;5.53;3.30;;;30.20;44.80;;;;;;6119200;29;20040;-74
2023/07/09 00:16:25;;;;;;;8.93;3.17;;;30.20;44.90;;;;;;6119036;29;20070;-74
2023/07/09 00:19:29;;;;;;;11.20;4.07;;;30.10;45.00;;;;;;6120587;29;20055;-73
2023/07/09 00:22:30;;;;;;;5.28;3.45;;;30.10;45.10;;;;;;6117934;29;20488;-73
2023/07/09 00:25:31;;;;;;;12.13;4.03;;;30.00;45.20;;;;;;6122184;29;20043;-74
2023/07/09 00:28:33;;;;;;;10.38;3.60;;;29.90;45.40;;;;;;6123432;29;20076;-74
2023/07/09 00:31:38;;;;;;;8.77;3.88;;;30.00;45.70;;;;;;6123154;29;20048;-75
2023/07/09 00:34:39;;;;;;;7.03;3.72;;;29.90;45.80;;;;;;6107295;29;20578;-74
2023/07/09 00:37:40;;;;;;;8.40;3.80;;;29.80;45.80;;;;;;6122775;29;20032;-73
2023/07/09 00:41:01;;;;;;;11.18;3.78;;;29.80;45.90;;;;;;6123108;29;20774;-74
2023/07/09 00:44:29;;;;;;;7.63;3.78;;;29.80;45.80;;;;;;6108880;29;20512;-73
2023/07/09 00:47:42;;;;;;;5.05;3.25;;;29.70;46.00;;;;;;6123435;29;20039;-75
2023/07/09 00:50:48;;;;;;;6.50;3.80;;;29.70;46.10;;;;;;6123193;29;20028;-74
2023/07/09 00:53:53;;;;;;;;;;;29.70;46.20;;;;;;6123428;29;20484;-74
2023/07/09 00:56:55;;;;;;;6.68;3.63;;;29.60;46.10;;;;;;6122712;29;19910;-73
2023/07/09 01:00:09;;;;;;;8.48;3.55;;;29.60;46.00;;;;;;6128811;29;20046;-74
2023/07/09 01:03:20;;;;;;;6.07;3.30;;;29.60;46.20;;;;;;6146075;28;20043;-73
2023/07/09 01:06:30;;;;;;;7.13;3.63;;;29.60;46.20;;;;;;6124746;29;20440;-75
2023/07/09 01:09:30;;;;;;;6.85;3.58;;;29.60;46.30;;;;;;6106797;29;20027;-73
2023/07/09 01:12:32;;;;;;;8.75;3.58;;;29.60;46.30;;;;;;6122264;29;20035;-74
2023/07/09 01:15:34;;;;;;;10.05;3.78;;;29.60;46.30;;;;;;6122770;29;20039;-74
2023/07/09 01:18:36;;;;;;;11.05;4.13;;;29.60;46.40;;;;;;6122923;29;20038;-74
2023/07/09 01:21:38;;;;;;;15.70;3.75;;;29.60;46.50;;;;;;6138752;29;20035;-74
2023/07/09 01:25:02;;;;;;;12.45;3.55;;;29.50;46.60;;;;;;6130005;28;20032;-74
2023/07/09 01:28:03;;;;;;;11.23;3.40;;;29.50;46.80;;;;;;6129527;29;20038;-74
2023/07/09 01:31:04;;;;;;;7.43;3.38;;;29.40;46.80;;;;;;6145182;29;20098;-74
2023/07/09 01:34:05;;;;;;;8.25;3.88;;;29.40;47.00;;;;;;6145463;28;20049;-73
2023/07/09 01:37:06;;;;;;;5.50;3.25;;;29.30;47.00;;;;;;6137747;28;20040;-73
2023/07/09 01:40:09;;;;;;;7.72;3.85;;;29.30;47.20;;;;;;6122121;29;20087;-75
2023/07/09 01:43:10;;;;;;;10.77;3.35;;;29.30;47.30;;;;;;6121250;29;20027;-73
2023/07/09 01:46:15;;;;;;;5.43;2.80;;;29.30;47.30;;;;;;6122571;29;20042;-73
2023/07/09 01:49:17;;;;;;;6.40;3.70;;;29.30;47.30;;;;;;6121926;29;20126;-73
2023/07/09 01:52:19;;;;;;;11.52;4.00;;;29.20;47.20;;;;;;6121422;29;20031;-74
2023/07/09 01:55:20;;;;;;;7.78;3.35;;;29.20;47.20;;;;;;6121451;29;20456;-76
2023/07/09 01:58:24;;;;;;;13.13;3.38;;;29.20;47.20;;;;;;6143917;29;20038;-74
2023/07/09 02:01:25;;;;;;;10.05;3.33;;;29.20;47.20;;;;;;6131234;29;20474;-73
2023/07/09 02:04:27;;;;;;;8.20;3.30;;;29.00;47.00;;;;;;6140448;28;20088;-73
2023/07/09 02:07:28;;;;;;;11.25;3.92;;;29.10;47.10;;;;;;6122358;29;20038;-74
2023/07/09 02:10:29;;;;;;;6.50;2.90;;;29.10;47.30;;;;;;6120987;29;20028;-74
2023/07/09 02:13:34;;;;;;;8.35;3.83;;;29.00;47.40;;;;;;6120487;29;20092;-74
2023/07/09 02:16:34;;;;;;;11.48;3.65;;;29.00;47.60;;;;;;6120664;29;20031;-74
2023/07/09 02:19:36;;;;;;;9.50;3.28;;;29.10;47.80;;;;;;6121122;29;20049;-74
2023/07/09 02:22:39;;;;;;;5.10;3.25;;;28.90;47.90;;;;;;6120465;29;20161;-76
2023/07/09 02:25:40;;;;;;;6.45;3.80;;;28.80;47.90;;;;;;6120429;29;20465;-74
2023/07/09 02:28:41;;;;;;;10.00;3.58;;;28.80;48.10;;;;;;6120522;29;20085;-74
2023/07/09 02:31:44;;;;;;;8.68;3.95;;;28.70;48.20;;;;;;6119983;29;20040;-74
2023/07/09 02:34:48;;;;;;;5.75;3.63;;;28.70;48.30;;;;;;6103938;29;20046;-75
2023/07/09 02:37:50;;;;;;;7.55;3.75;;;28.70;48.60;;;;;;6122097;29;20031;-73
2023/07/09 02:40:53;;;;;;;8.95;3.30;;;28.60;48.70;;;;;;6119705;29;20059;-75
2023/07/09 02:43:54;;;;;;;4.78;2.58;;;28.60;48.90;;;;;;6119777;29;20035;-74
2023/07/09 02:46:55;;;;;;;5.05;3.40;;;28.60;49.00;;;;;;6119093;29;20043;-73
2023/07/09 02:49:56;;;;;;;9.60;3.65;;;28.50;49.10;;;;;;6119970;29;20039;-73
2023/07/09 02:52:57;;;;;;;11.20;3.58;;;28.50;49.40;;;;;;6128380;28;20140;-73
2023/07/09 02:55:57;;;;;;;9.43;3.72;;;28.50;49.60;;;;;;6143816;29;20039;-73
2023/07/09 02:58:59;;;;;;;10.45;3.83;;;28.40;49.90;;;;;;6127449;29;20077;-74
2023/07/09 03:02:00;;;;;;;14.45;4.10;;;28.30;50.10;;;;;;6142872;29;20349;-74
2023/07/09 03:05:01;;;;;;;10.13;3.60;;;28.20;50.30;;;;;;6129560;28;20054;-73
2023/07/09 03:08:02;;;;;;;6.13;3.25;;;28.20;50.30;;;;;;6104163;29;20032;-74
2023/07/09 03:11:15;;;;;;;7.38;3.67;;;28.10;50.60;;;;;;6120916;29;20078;-74
2023/07/09 03:14:16;;;;;;;6.32;3.60;;;28.20;50.30;;;;;;6103734;29;20058;-74
2023/07/09 03:17:17;;;;;;;5.35;3.35;;;27.80;49.60;;;;;;6119532;29;20401;-75
2023/07/09 03:20:18;;;;;;;8.10;3.08;;;28.50;49.60;;;;;;6119433;29;20090;-74
2023/07/09 03:23:19;;;;;;;8.70;3.05;;;28.50;49.50;;;;;;6118809;29;20028;-74
2023/07/09 03:26:20;;;;;;;5.43;3.08;;;28.50;49.50;;;;;;6103694;29;20042;-72
2023/07/09 03:29:22;;;;;;;5.80;3.22;;;28.40;49.30;;;;;;6120846;29;20114;-73
2023/07/09 03:32:23;;;;;;;9.20;4.50;;;28.40;49.30;;;;;;6102887;29;20511;-74
2023/07/09 03:35:25;;;;;;;7.80;3.95;;;28.30;49.40;;;;;;6119174;29;20027;-73
2023/07/09 03:38:27;;;;;;;5.13;2.80;;;28.20;49.40;;;;;;6118774;29;20874;-74
2023/07/09 03:41:27;;;;;;;8.05;4.43;;;28.20;49.30;;;;;;6103062;29;20034;-74
2023/07/09 03:44:28;;;;;;;10.45;3.13;;;28.10;49.30;;;;;;6118630;29;20137;-72
2023/07/09 03:47:29;;;;;;;10.10;3.53;;;28.10;49.40;;;;;;6119203;29;20396;-74
2023/07/09 03:50:30;;;;;;;7.05;3.90;;;28.10;49.50;;;;;;6139351;29;20038;-73
2023/07/09 03:53:33;;;;;;;10.45;3.35;;;28.00;49.60;;;;;;6142167;28;20102;-74
2023/07/09 03:56:33;;;;;;;8.32;3.58;;;28.00;49.60;;;;;;6142676;29;20057;-74
2023/07/09 03:59:34;;;;;;;6.72;3.60;;;27.90;49.60;;;;;;6141627;28;20062;-73
2023/07/09 04:02:36;;;;;;;6.38;2.72;;;27.90;49.70;;;;;;6118400;29;20066;-73
2023/07/09 04:05:37;;;;;;;7.22;3.80;;;27.80;49.70;;;;;;6118853;29;20134;-74
2023/07/09 04:08:38;;;;;;;7.82;3.20;;;27.70;49.80;;;;;;6119106;29;20400;-74
2023/07/09 04:11:40;;;;;;;5.38;3.30;;;27.70;49.90;;;;;;6119044;29;20035;-73
2023/07/09 04:14:41;;;;;;;9.70;3.95;;;27.70;50.00;;;;;;6119099;29;20035;-73
2023/07/09 04:17:42;;;;;;;7.15;3.83;;;27.70;50.00;;;;;;6122923;29;20562;-74
2023/07/09 04:20:43;;;;;;;6.15;3.28;;;27.70;49.90;;;;;;6111330;29;20054;-75
2023/07/09 04:23:43;;;;;;;9.75;3.70;;;27.60;49.90;;;;;;6121170;29;20032;-74
2023/07/09 04:26:45;;;;;;;15.35;3.60;;;27.50;50.20;;;;;;6118474;29;20118;-73
2023/07/09 04:29:48;;;;;;;8.48;3.70;;;27.50;51.00;;;;;;6119944;29;20036;-74
2023/07/09 04:32:49;;;;;;;9.32;4.22;;;27.40;50.70;;;;;;6118090;29;20032;-73
2023/07/09 04:35:50;;;;;;;9.63;3.75;;;27.30;50.70;;;;;;6134126;29;20040;-75
2023/07/09 04:38:53;;;;;;;8.25;3.63;;;27.30;50.90;;;;;;6121155;29;20039;-73
2023/07/09 04:41:54;;;;;;;8.65;3.45;;;27.30;51.10;;;;;;6118688;29;20070;-74
2023/07/09 04:44:55;;;;;;;8.45;3.63;;;27.20;51.30;;;;;;6118301;29;20052;-74
2023/07/09 04:47:56;;;;;;;9.25;3.33;;;27.20;51.50;;;;;;6118446;29;20090;-75
2023/07/09 04:50:59;;;;;;;10.13;3.78;;;27.10;51.70;;;;;;6119686;29;20861;-74
2023/07/09 04:54:03;;;;;;;8.38;3.78;;;27.10;52.00;;;;;;6103212;29;20051;-74
2023/07/09 04:57:05;;;;;;;11.38;3.70;;;27.10;52.20;;;;;;6102831;29;20047;-74
2023/07/09 05:00:07;;;;;;;6.85;3.65;;;27.10;52.30;;;;;;6119568;29;20409;-75
2023/07/09 05:03:08;;;;;;;5.53;3.20;;;27.00;52.40;;;;;;6102001;29;20075;-73
2023/07/09 05:06:09;;;;;;;5.43;3.15;;;27.00;52.40;;;;;;6119482;29;20123;-74
2023/07/09 05:09:09;;;;;;;7.57;3.92;;;26.90;52.40;;;;;;6117754;29;20028;-75
2023/07/09 05:12:11;;;;;;;5.95;3.17;;;26.90;52.50;;;;;;6124486;29;20031;-73
2023/07/09 05:15:12;;;;;;;10.93;3.60;;;26.90;52.50;;;;;;6107362;29;20522;-75
2023/07/09 05:18:14;;;;;;;7.95;4.47;;;26.90;52.50;;;;;;6123476;29;20055;-74
2023/07/09 05:21:15;;;;;;;7.07;3.28;;;26.90;52.40;;;;;;6107467;29;20027;-72
2023/07/09 05:24:17;;;;;;;5.68;3.40;;;26.90;52.30;;;;;;6124202;29;20039;-73
2023/07/09 05:27:18;;;;;;;7.57;3.47;;;27.00;52.10;;;;;;6122506;29;20495;-76
2023/07/09 05:30:20;;;;;;;10.43;3.83;;;27.10;52.00;;;;;;6122101;29;20036;-75
2023/07/09 05:33:22;;;;;;;9.57;3.30;;;27.10;51.80;;;;;;6121573;29;20421;-74
2023/07/09 05:36:22;;;;;;;6.85;3.10;;;27.30;51.70;;;;;;6122210;29;20042;-75
2023/07/09 05:39:23;;;;;;;8.63;3.50;;;27.40;51.60;;;;;;6107308;29;20397;-74
2023/07/09 05:42:24;;;;;;;9.40;3.33;;;27.50;51.30;;;;;;6123924;29;20206;-73
2023/07/09 05:45:25;;;;;;;6.40;3.17;;;27.60;51.10;;;;;;6143921;29;20038;-72
2023/07/09 05:48:26;;;;;;;9.77;3.95;;;27.60;50.90;;;;;;6146307;28;20529;-76
2023/07/09 05:51:26;;;;;;;11.32;3.65;;;27.80;50.90;;;;;;6145894;28;20408;-75
2023/07/09 05:54:27;;;;;;;8.20;3.25;;;27.80;50.70;;;;;;6146800;28;20071;-73
2023/07/09 05:57:29;;;;;;;10.23;3.63;;;27.80;50.70;;;;;;6117256;29;20095;-73
2023/07/09 06:00:30;;;;;;;6.53;3.35;;;27.90;50.60;;;;;;6123907;29;20035;-74
2023/07/09 06:03:31;;;;;;;6.05;3.10;;;27.90;50.50;;;;;;6106482;29;20070;-75
2023/07/09 06:06:32;;;;;;;7.28;3.75;;;28.00;50.50;;;;;;6122448;29;20040;-75
2023/07/09 06:09:35;;;;;;;10.68;3.40;;;28.00;50.40;;;;;;6122785;29;20031;-75
2023/07/09 06:12:36;;;;;;;12.30;4.10;;;28.00;50.10;;;;;;6123849;29;20176;-73
2023/07/09 06:15:38;;;;;;;8.30;3.53;;;28.00;50.00;;;;;;6122193;29;20147;-73
2023/07/09 06:18:40;;;;;;;9.50;3.55;;;28.10;49.80;;;;;;6123618;29;20039;-74
2023/07/09 06:21:41;;;;;;;7.03;3.28;;;28.20;49.60;;;;;;6121043;29;20035;-74
2023/07/09 06:24:42;;;;;;;7.53;3.30;;;28.30;49.40;;;;;;6122778;29;20039;-74
2023/07/09 06:27:43;;;;;;;11.70;3.30;;;28.30;49.30;;;;;;6121801;29;20409;-76
2023/07/09 06:30:45;;;;;;;7.10;3.25;;;28.40;49.10;;;;;;6105329;29;20118;-75
2023/07/09 06:33:46;;;;;;;7.25;3.38;;;28.50;49.00;;;;;;6121580;29;20481;-72
2023/07/09 06:36:47;;;;;;;5.13;3.22;;;28.60;48.60;;;;;;6126036;29;20035;-74
2023/07/09 06:39:48;;;;;;;13.15;4.47;;;28.60;48.10;;;;;;6147800;29;20039;-73
2023/07/09 06:42:50;;;;;;;7.28;3.40;;;28.80;47.60;;;;;;6144451;28;20437;-75
2023/07/09 06:46:00;;;;;;;5.47;3.10;;;28.70;46.50;;;;;;6097198;29;20028;-73
2023/07/09 06:49:02;;;;;;;7.10;3.28;;;28.70;47.00;;;;;;6114086;29;20032;-74
2023/07/09 06:52:04;;;;;;;6.80;2.90;;;28.80;47.00;;;;;;6096857;29;20028;-74
2023/07/09 06:55:05;;;;;;;12.35;3.97;;;28.80;46.70;;;;;;6096652;29;20115;-75
2023/07/09 06:58:06;;;;;;;5.95;3.55;;;28.90;46.30;;;;;;6120599;29;20043;-73
2023/07/09 07:01:10;;;;;;;4.15;2.80;;;29.00;45.90;;;;;;6119910;29;20044;-76
2023/07/09 07:04:12;;;;;;;9.82;3.25;;;29.00;45.80;;;;;;6120177;29;20110;-75
2023/07/09 07:07:13;;;;;;;7.47;3.00;;;29.10;45.60;;;;;;6121827;29;20055;-73
2023/07/09 07:10:14;;;;;;;4.03;2.72;;;29.20;45.40;;;;;;6104342;29;20036;-75
2023/07/09 07:13:15;;;;;;;6.13;3.05;;;29.30;45.10;;;;;;6119875;29;20110;-73
2023/07/09 07:16:16;;;;;;;6.18;3.15;;;29.50;44.50;;;;;;6103958;29;20051;-74
2023/07/09 07:19:17;;;;;;;7.93;3.03;;;29.60;44.30;;;;;;6119706;29;20684;-75
2023/07/09 07:22:18;;;;;;;8.07;3.10;;;29.60;44.30;;;;;;6119387;29;20118;-74
2023/07/09 07:25:19;;;;;;;7.65;3.00;;;29.70;44.30;;;;;;6119301;29;20039;-74
2023/07/09 07:28:21;;;;;;;8.77;2.88;;;29.80;44.20;;;;;;6119132;29;20038;-74
2023/07/09 07:31:22;;;;;;;7.00;3.83;;;29.90;44.00;;;;;;6119147;29;20088;-73
2023/07/09 07:34:24;;;;;;;25.25;3.53;;;30.00;43.80;;;;;;6130162;29;20046;-74
2023/07/09 07:37:25;;;;;;;6.25;3.40;;;30.20;43.80;;;;;;6133230;29;20448;-76
2023/07/09 07:40:26;;;;;;;7.78;3.53;;;30.30;43.40;;;;;;6120388;29;20095;-76
2023/07/09 07:43:27;;;;;;;9.05;3.05;;;30.30;43.10;;;;;;6123653;29;20478;-75
2023/07/09 07:46:29;;;;;;;7.68;3.38;;;30.60;42.90;;;;;;6143996;28;20361;-76
2023/07/09 07:49:31;;;;;;;8.63;3.78;;;30.70;42.70;;;;;;6127021;29;20027;-76
2023/07/09 07:52:32;;;;;;;9.65;3.58;;;30.70;42.40;;;;;;6122624;29;20032;-76
2023/07/09 07:55:34;;;;;;;8.00;3.28;;;30.80;42.30;;;;;;6103277;29;20122;-75
2023/07/09 07:58:35;;;;;;;8.55;3.40;;;30.90;41.90;;;;;;6103306;29;20042;-74
2023/07/09 08:01:36;;;;;;;6.28;3.38;;;31.00;41.40;;;;;;6118668;29;20091;-76
2023/07/09 08:04:38;;;;;;;8.02;2.97;;;31.10;41.00;;;;;;6094233;29;20464;-75
2023/07/09 08:07:39;;;;;;;4.97;2.85;;;31.20;40.60;;;;;;6079467;29;20028;-76
2023/07/09 08:10:39;;;;;;;6.40;3.25;;;31.20;40.20;;;;;;6096286;29;20715;-76
2023/07/09 08:13:41;;;;;;;8.45;2.80;;;31.30;40.20;;;;;;6118219;29;20061;-74
2023/07/09 08:16:42;;;;;;;5.60;3.10;;;31.40;39.90;;;;;;6119034;29;20036;-76
2023/07/09 08:19:50;;;;;;;12.85;3.28;;;31.50;40.00;;;;;;6119426;29;20736;-76
2023/07/09 08:22:52;;;;;;;7.15;3.10;;;31.50;39.50;;;;;;6119373;29;20040;-76
2023/07/09 08:25:57;;;;;;;5.90;3.13;;;31.70;39.20;;;;;;6103089;29;20031;-74
2023/07/09 08:28:58;;;;;;;7.28;3.25;;;31.80;39.20;;;;;;6119210;29;20028;-75
2023/07/09 08:32:03;;;;;;;8.63;3.17;;;32.50;39.20;;;;;;6123628;29;20102;-76
2023/07/09 08:35:05;;;;;;;8.38;3.15;;;32.20;38.70;;;;;;6142491;28;20054;-77
2023/07/09 08:38:07;;;;;;;3.97;2.58;;;32.30;37.50;;;;;;6128953;28;20065;-76
2023/07/09 08:41:28;;;;;;;8.52;2.97;;;32.50;36.70;;;;;;6118370;29;20066;-77
2023/07/09 08:44:48;;;;;;;8.35;2.83;;;32.60;35.90;;;;;;6119078;29;20047;-75
2023/07/09 08:48:04;;;;;;;9.80;2.80;;;32.70;35.10;;;;;;6107961;29;20062;-74
2023/07/09 08:51:19;;;;;;;6.13;2.78;;;32.60;34.80;;;;;;6108906;29;20066;-77
2023/07/09 08:54:31;;;;;;;7.43;2.88;;;32.70;34.40;;;;;;6113477;29;20064;-75
2023/07/09 08:57:38;;;;;;;6.60;2.70;;;32.70;33.10;;;;;;6125666;29;20042;-75
2023/07/09 09:00:56;;;;;;;11.52;2.83;;;32.70;33.80;;;;;;6123334;29;20130;-78
2023/07/09 09:04:13;;;;;;;;;;;32.80;33.70;;;;;;6123235;29;20051;-76
2023/07/09 09:07:37;;;;;;;7.75;2.83;;;32.90;33.50;;;;;;6122774;29;19974;-76
2023/07/09 09:10:42;;;;;;;5.00;2.72;;;33.00;33.10;;;;;;6138681;29;20493;-77
2023/07/09 09:13:45;;;;;;;7.75;3.30;;;33.00;33.20;;;;;;6123076;29;20248;-76
2023/07/09 09:16:48;;;;;;;5.43;2.85;;;33.10;33.30;;;;;;6123632;29;20067;-76
2023/07/09 09:19:59;;;;;;;5.28;2.58;;;33.10;33.30;;;;;;6122703;29;20084;-76
2023/07/09 09:23:15;;;;;;;9.68;3.75;;;33.20;33.00;;;;;;6122419;29;20035;-74
2023/07/09 09:26:23;;;;;;;8.80;3.45;;;33.40;32.50;;;;;;6106979;29;20480;-75
2023/07/09 09:29:26;;;;;;;10.80;3.08;;;33.40;32.00;;;;;;6122525;29;20075;-76
2023/07/09 09:32:30;;;;;;;4.47;2.63;;;33.50;31.90;;;;;;6122681;29;20067;-77
2023/07/09 09:35:37;;;;;;;6.80;2.67;;;33.60;31.50;;;;;;6106727;29;20047;-76
2023/07/09 09:38:38;;;;;;;8.10;3.05;;;33.70;31.80;;;;;;6114811;29;20468;-76
2023/07/09 09:41:40;;;;;;;9.05;2.78;;;33.70;31.30;;;;;;6098758;29;20039;-76
2023/07/09 09:44:45;;;;;;;6.72;2.67;;;33.70;31.30;;;;;;6112057;29;20031;-77
2023/07/09 09:47:47;;;;;;;5.55;2.58;;;33.80;31.40;;;;;;6122091;29;20047;-76
2023/07/09 09:50:51;;;;;;;7.38;2.60;;;33.90;31.40;;;;;;6121923;29;20079;-75
2023/07/09 09:53:57;;;;;;;5.15;2.80;;;33.90;31.30;;;;;;6105699;29;20071;-77
2023/07/09 09:56:58;;;;;;;5.55;2.70;;;34.00;31.50;;;;;;6104643;29;20066;-75
2023/07/09 09:59:59;;;;;;;5.57;2.17;;;34.00;31.50;;;;;;6121925;29;20043;-75
2023/07/09 10:03:03;;;;;;;8.18;3.50;;;34.10;31.20;;;;;;6121629;29;20040;-76
2023/07/09 10:06:14;;;;;;;5.85;2.65;;;34.20;30.80;;;;;;6123840;29;20102;-77
2023/07/09 10:09:55;;;;;;;7.75;2.72;;;34.20;30.90;;;;;;6122262;29;20122;-76
2023/07/09 10:13:07;;;;;;;5.78;3.15;;;34.20;31.00;;;;;;6123893;29;20066;-76
2023/07/09 10:16:15;;;;;;;7.45;2.60;;;34.30;31.10;;;;;;6122009;29;20123;-75
2023/07/09 10:19:45;;;;;;;11.63;2.92;;;34.30;31.00;;;;;;6123401;29;20159;-75
2023/07/09 10:23:02;;;;;;;5.82;2.80;;;34.40;31.10;;;;;;6129166;28;20075;-76
2023/07/09 10:26:17;;;;;;;9.82;3.40;;;34.40;30.90;;;;;;6128516;29;20035;-76
2023/07/09 10:29:39;;;;;;;5.45;3.13;;;34.40;31.00;;;;;;6144850;28;20113;-75
2023/07/09 10:32:53;;;;;;;4.75;2.75;;;34.40;31.10;;;;;;6146936;28;20102;-73
2023/07/09 10:36:11;;;;;;;5.28;2.85;;;34.40;31.10;;;;;;6129901;28;20455;-77
2023/07/09 10:39:17;;;;;;;8.40;3.25;;;34.40;31.20;;;;;;6101988;29;20036;-73
2023/07/09 10:42:25;;;;;;;4.95;2.60;;;34.40;31.20;;;;;;6120210;29;20127;-76
2023/07/09 10:45:37;;;;;;;6.10;3.00;;;34.50;31.20;;;;;;6145518;29;20039;-76
2023/07/09 10:48:43;;;;;;;4.45;2.88;;;34.50;31.40;;;;;;6145761;28;20023;-76
2023/07/09 10:52:20;;;;;;;6.05;3.05;;;34.50;31.50;;;;;;6143748;28;20110;-76
2023/07/09 10:55:38;;;;;;;7.32;2.85;;;34.50;31.70;;;;;;6101904;29;20047;-75
2023/07/09 10:59:01;;;;;;;5.25;2.85;;;34.50;31.80;;;;;;6102733;29;20048;-77
2023/07/09 11:02:24;;;;;;;6.63;3.15;;;34.50;32.00;;;;;;6111092;29;20044;-75
2023/07/09 11:05:25;;;;;;;12.75;3.38;;;34.70;32.20;;;;;;6095098;29;20118;-75
2023/07/09 11:08:38;;;;;;;6.38;3.83;;;34.80;32.20;;;;;;6094026;29;20152;-76
2023/07/09 11:11:44;;;;;;;7.07;3.33;;;35.40;31.90;;;;;;6094796;29;20409;-76
2023/07/09 11:15:08;;;;;;;6.18;3.22;;;36.40;30.80;;;;;;6079009;29;20032;-76
2023/07/09 11:18:23;;;;;;;7.97;3.38;;;37.30;29.80;;;;;;6078839;29;20514;-76
2023/07/09 11:21:24;;;;;;;9.18;3.60;;;38.10;29.10;;;;;;6101289;29;20054;-75
2023/07/09 11:24:53;;;;;;;5.13;3.17;;;38.70;28.60;;;;;;6102090;29;20039;-76
2023/07/09 11:28:04;;;;;;;6.70;3.35;;;39.10;28.40;;;;;;6101436;29;20040;-75
2023/07/09 11:31:17;;;;;;;10.07;3.33;;;39.20;28.20;;;;;;6123558;29;20091;-76
2023/07/09 11:34:20;;;;;;;7.57;3.10;;;39.20;28.00;;;;;;6142954;28;20050;-75
2023/07/09 11:37:26;;;;;;;5.68;3.35;;;39.50;27.70;;;;;;6133487;29;20122;-75
2023/07/09 11:40:27;;;;;;;7.95;2.83;;;39.80;27.50;;;;;;6118601;29;20028;-76
2023/07/09 11:43:28;;;;;;;4.78;2.85;;;40.20;27.20;;;;;;6118584;29;20055;-75
2023/07/09 11:46:29;;;;;;;5.75;3.13;;;40.30;26.80;;;;;;6118874;29;20138;-76
2023/07/09 11:50:00;;;;;;;9.10;3.20;;;40.40;26.80;;;;;;6119217;29;20385;-75
2023/07/09 11:53:13;;;;;;;6.10;3.13;;;40.20;26.70;;;;;;6118528;29;20027;-75
2023/07/09 11:56:14;;;;;;;7.63;3.33;;;40.10;26.90;;;;;;6118296;29;20059;-75
2023/07/09 11:59:15;;;;;;;8.32;3.30;;;40.00;27.20;;;;;;6121129;29;20032;-74
2023/07/09 12:02:21;;;;;;;8.43;3.55;;;40.00;27.10;;;;;;6121635;29;20039;-73
2023/07/09 12:05:28;;;;;;;5.40;3.15;;;39.70;27.30;;;;;;6103760;29;20036;-75
2023/07/09 12:08:30;;;;;;;6.07;2.88;;;39.50;27.60;;;;;;6112414;29;20025;-75
2023/07/09 12:11:33;;;;;;;7.07;3.05;;;39.30;27.70;;;;;;6097324;29;20036;-75
2023/07/09 12:14:34;;;;;;;9.00;3.25;;;39.20;27.80;;;;;;6100437;29;20715;-75
2023/07/09 12:17:35;;;;;;;12.15;3.63;;;39.40;27.60;;;;;;6128099;28;20043;-74
2023/07/09 12:20:36;;;;;;;5.82;3.25;;;39.60;27.20;;;;;;6145479;28;20633;-73
2023/07/09 12:23:40;;;;;;;5.47;3.33;;;39.50;27.50;;;;;;6149470;28;20141;-73
2023/07/09 12:26:42;;;;;;;5.95;3.20;;;39.20;27.80;;;;;;6147317;28;20043;-75
2023/07/09 12:29:43;;;;;;;3.70;2.97;;;38.60;28.40;;;;;;6148227;29;20027;-75
2023/07/09 12:32:52;;;;;;;6.93;3.45;;;38.00;29.00;;;;;;6147471;28;20058;-74
2023/07/09 12:36:06;;;;;;;7.18;2.75;;;38.00;29.30;;;;;;6131039;28;20344;-75
2023/07/09 12:39:12;;;;;;;4.97;2.95;;;38.40;28.90;;;;;;6127473;29;20052;-74
2023/07/09 12:42:26;;;;;;;7.18;2.45;;;38.40;28.80;;;;;;6108586;29;20123;-74
2023/07/09 12:45:28;;;;;;;5.35;3.13;;;38.00;29.20;;;;;;6124192;29;20032;-75
2023/07/09 12:48:30;;;;;;;4.47;2.83;;;37.80;29.60;;;;;;6124635;29;20054;-74
2023/07/09 12:51:31;;;;;;;12.05;3.22;;;38.00;29.30;;;;;;6109328;29;20126;-74
2023/07/09 12:54:33;;;;;;;5.55;3.30;;;38.20;28.90;;;;;;6105810;29;20713;-74
2023/07/09 12:57:37;;;;;;;4.20;2.80;;;38.50;28.40;;;;;;6100832;29;20135;-74
2023/07/09 13:00:39;;;;;;;10.40;3.05;;;38.30;28.60;;;;;;6101007;29;20103;-75
2023/07/09 13:03:40;;;;;;;8.30;3.17;;;38.20;28.80;;;;;;6101592;29;20032;-74
2023/07/09 13:06:45;;;;;;;3.35;2.67;;;38.40;28.70;;;;;;6099576;29;20082;-75
2023/07/09 13:09:52;;;;;;;5.35;2.90;;;39.00;28.30;;;;;;6100233;29;20028;-75
2023/07/09 13:12:56;;;;;;;9.10;3.28;;;39.60;27.60;;;;;;6102853;29;20070;-75
2023/07/09 13:16:03;;;;;;;4.38;2.80;;;39.80;27.30;;;;;;6124342;29;20110;-74
2023/07/09 13:19:03;;;;;;;4.85;3.10;;;40.10;27.10;;;;;;6123252;29;20114;-74
2023/07/09 13:22:08;;;;;;;5.47;3.00;;;39.80;27.30;;;;;;6155149;28;20044;-75
2023/07/09 13:25:09;;;;;;;12.13;3.35;;;39.80;27.40;;;;;;6122784;29;20040;-78
2023/07/09 13:28:29;;;;;;;8.88;3.22;;;39.90;27.40;;;;;;6123483;29;20062;-75
2023/07/09 13:31:30;;;;;;;8.07;4.00;;;40.20;27.20;;;;;;6106728;29;20449;-75
2023/07/09 13:34:35;;;;;;;5.72;2.95;;;39.60;27.70;;;;;;6154031;28;20044;-76
2023/07/09 13:37:36;;;;;;;8.07;3.30;;;39.00;28.70;;;;;;6106423;29;20571;-74
2023/07/09 13:40:37;;;;;;;5.18;2.92;;;39.30;28.40;;;;;;6106752;29;20080;-75
2023/07/09 13:43:43;;;;;;;12.02;3.25;;;39.90;27.90;;;;;;6121507;29;20032;-74
2023/07/09 13:46:44;;;;;;;6.90;3.23;;;39.90;28.10;;;;;;6122622;29;20490;-76
2023/07/09 13:49:49;;;;;;;7.10;3.20;;;39.20;28.50;;;;;;6141305;28;20338;-76
2023/07/09 13:52:51;;;;;;;10.27;2.97;;;38.50;29.80;;;;;;6122989;29;20506;-74
2023/07/09 13:55:54;;;;;;;5.90;3.35;;;38.00;30.00;;;;;;6123258;29;20171;-76
2023/07/09 13:58:55;;;;;;;7.70;3.42;;;37.70;30.60;;;;;;6125041;29;20086;-75
2023/07/09 14:01:58;;;;;;;4.82;3.10;;;37.80;30.30;;;;;;6124860;29;20143;-74
2023/07/09 14:05:00;;;;;;;5.00;2.95;;;37.90;30.40;;;;;;6121636;29;20122;-77
2023/07/09 14:08:02;;;;;;;4.88;3.60;;;38.90;29.70;;;;;;6114601;29;20362;-76
2023/07/09 14:11:14;;;;;;;5.50;3.10;;;40.10;28.30;;;;;;6101640;29;20035;-76
2023/07/09 14:14:23;;;;;;;8.82;3.95;;;40.80;27.40;;;;;;6125812;28;20095;-76
2023/07/09 14:17:25;;;;;;;10.25;2.97;;;40.40;27.60;;;;;;6099052;29;20111;-76
2023/07/09 14:20:26;;;;;;;5.88;3.25;;;40.10;28.00;;;;;;6105351;29;20126;-76
2023/07/09 14:23:27;;;;;;;5.80;3.08;;;39.90;28.00;;;;;;6113049;29;20046;-75
2023/07/09 14:26:28;;;;;;;6.25;3.28;;;39.80;28.40;;;;;;6082218;29;20040;-75
2023/07/09 14:29:29;;;;;;;5.07;3.50;;;39.60;28.50;;;;;;6098208;29;20040;-76
2023/07/09 14:32:38;;;;;;;5.88;2.75;;;39.60;28.80;;;;;;6101302;29;20107;-75
2023/07/09 14:35:39;;;;;;;8.75;3.13;;;40.00;28.50;;;;;;6085529;29;20040;-75
2023/07/09 14:38:41;;;;;;;4.88;3.00;;;40.60;27.70;;;;;;6101229;29;20036;-74
2023/07/09 14:41:43;;;;;;;6.97;3.28;;;41.00;27.20;;;;;;6100715;29;20150;-76
2023/07/09 14:44:43;;;;;;;9.65;3.30;;;41.20;27.00;;;;;;6128719;29;20090;-76
2023/07/09 14:47:45;;;;;;;13.65;3.60;;;40.80;27.40;;;;;;6125832;28;20039;-76
2023/07/09 14:50:47;;;;;;;10.20;3.17;;;41.20;27.10;;;;;;6120589;29;20027;-74
2023/07/09 14:53:47;;;;;;;8.73;3.70;;;42.00;26.30;;;;;;6119588;29;20421;-73
2023/07/09 14:56:51;;;;;;;12.40;3.33;;;42.40;25.80;;;;;;6121743;29;20051;-75
2023/07/09 14:59:53;;;;;;;6.40;2.90;;;42.70;25.40;;;;;;6104217;29;20094;-75
2023/07/09 15:02:54;;;;;;;5.05;2.60;;;43.10;25.00;;;;;;6121155;29;20360;-74
2023/07/09 15:05:55;;;;;;;8.85;2.88;;;43.50;24.70;;;;;;6119822;29;20063;-74
2023/07/09 15:08:56;;;;;;;8.70;3.30;;;43.60;24.40;;;;;;6119271;29;20039;-74
2023/07/09 15:11:59;;;;;;;4.00;2.88;;;43.70;24.30;;;;;;6121149;29;20181;-73
2023/07/09 15:15:20;;;;;;;5.90;2.80;;;43.60;24.30;;;;;;6119751;29;20141;-75
2023/07/09 15:18:21;;;;;;;6.18;3.20;;;43.30;24.50;;;;;;6118977;29;20460;-73
2023/07/09 15:21:22;;;;;;;8.15;3.22;;;43.20;24.60;;;;;;6103081;29;20106;-75
2023/07/09 15:24:28;;;;;;;7.85;3.33;;;42.90;24.80;;;;;;6118957;29;20042;-74
2023/07/09 15:27:29;;;;;;;8.65;3.03;;;42.50;25.10;;;;;;6102890;29;20036;-75
2023/07/09 15:30:31;;;;;;;6.97;2.80;;;42.40;25.20;;;;;;6103315;29;20134;-75
2023/07/09 15:33:32;;;;;;;9.00;3.10;;;42.10;25.30;;;;;;6103341;29;20031;-74
2023/07/09 15:36:34;;;;;;;7.75;3.28;;;41.60;25.70;;;;;;6104282;29;20036;-74
2023/07/09 15:39:34;;;;;;;8.75;3.38;;;41.20;26.20;;;;;;6103806;29;20446;-74
2023/07/09 15:42:36;;;;;;;6.60;3.85;;;41.40;26.20;;;;;;6120883;29;20065;-73
2023/07/09 15:45:44;;;;;;;7.45;3.17;;;41.60;25.80;;;;;;6118611;29;20038;-74
2023/07/09 15:48:47;;;;;;;6.43;3.17;;;42.00;25.60;;;;;;6120392;29;20563;-74
2023/07/09 15:51:48;;;;;;;7.07;3.42;;;42.30;25.20;;;;;;6118927;29;20457;-74
2023/07/09 15:54:50;;;;;;;4.70;2.75;;;42.60;24.90;;;;;;6107556;29;20028;-76
2023/07/09 15:57:52;;;;;;;4.13;2.72;;;42.80;24.70;;;;;;6103831;29;20099;-75